createdAt,value
2019-03-08T00:01:47.138Z,5.00
2019-03-08T00:04:32.250Z,5.67
2019-03-08T00:07:17.774Z,5.27
2019-03-08T00:10:04.234Z,5.00
2019-03-08T00:12:49.822Z,4.70
2019-03-08T00:15:35.135Z,6.50
2019-03-08T00:18:20.302Z,6.37
2019-03-08T00:21:05.711Z,6.57
2019-03-08T00:23:51.371Z,4.80
2019-03-08T00:26:36.747Z,6.53
2019-03-08T00:29:22.215Z,6.20
2019-03-08T00:32:07.395Z,5.83
2019-03-08T00:34:52.817Z,5.13
2019-03-08T00:37:38.505Z,5.17
2019-03-08T00:40:23.806Z,7.03
2019-03-08T00:43:09.308Z,6.27
2019-03-08T00:45:55.432Z,10.30
2019-03-08T00:48:40.901Z,7.83
2019-03-08T00:51:25.863Z,11.93
2019-03-08T00:54:11.542Z,10.00
2019-03-08T00:56:56.642Z,10.90
2019-03-08T00:59:41.712Z,13.70
2019-03-08T01:02:27.578Z,16.57
2019-03-08T01:05:14.158Z,14.57
2019-03-08T01:07:59.345Z,13.13
2019-03-08T01:10:44.670Z,14.40
2019-03-08T01:13:29.823Z,15.03
2019-03-08T01:16:15.342Z,14.80
2019-03-08T01:19:00.343Z,12.90
2019-03-08T01:21:45.627Z,13.60
2019-03-08T01:24:30.745Z,15.80
2019-03-08T01:27:15.885Z,13.57
2019-03-08T01:30:03.124Z,14.27
2019-03-08T01:32:49.987Z,13.17
2019-03-08T01:35:35.401Z,11.33
2019-03-08T01:38:20.313Z,14.10
2019-03-08T01:41:05.762Z,14.77
2019-03-08T01:43:51.447Z,10.90
2019-03-08T01:46:36.816Z,11.50
2019-03-08T01:49:23.020Z,12.83
2019-03-08T01:58:16.478Z,11.27
2019-03-08T02:01:02.369Z,12.40
2019-03-08T02:03:47.894Z,10.33
2019-03-08T02:06:33.241Z,9.47
2019-03-08T02:09:18.341Z,10.40
2019-03-08T02:12:04.068Z,9.13
2019-03-08T02:14:49.329Z,7.67
2019-03-08T02:17:34.677Z,10.10
2019-03-08T02:20:21.336Z,9.03
2019-03-08T02:23:06.361Z,9.33
2019-03-08T02:25:51.509Z,10.40
2019-03-08T02:28:36.848Z,7.60
2019-03-08T02:31:22.133Z,10.33
2019-03-08T02:34:07.959Z,13.03
2019-03-08T02:36:53.156Z,11.93
2019-03-08T02:39:38.391Z,8.03
2019-03-08T02:42:23.610Z,9.03
2019-03-08T02:45:08.806Z,10.27
2019-03-08T02:47:54.138Z,7.83
2019-03-08T02:50:39.351Z,7.87
2019-03-08T02:53:24.698Z,7.90
2019-03-08T02:56:09.626Z,8.87
2019-03-08T02:58:54.598Z,9.53
2019-03-08T03:01:39.664Z,8.37
2019-03-08T03:04:24.820Z,8.83
2019-03-08T03:07:09.852Z,6.87
2019-03-08T03:09:56.161Z,6.47
2019-03-08T03:12:41.889Z,7.83
2019-03-08T03:15:27.105Z,5.53
2019-03-08T03:18:12.719Z,6.77
2019-03-08T03:20:58.367Z,7.90
2019-03-08T03:23:43.493Z,8.13
2019-03-08T03:26:28.279Z,7.47
2019-03-08T03:29:13.050Z,8.73
2019-03-08T03:31:58.663Z,6.40
2019-03-08T03:34:43.621Z,7.80
2019-03-08T03:37:28.908Z,6.77
2019-03-08T03:40:15.922Z,10.13
2019-03-08T03:43:01.028Z,8.80
2019-03-08T03:45:46.338Z,10.17
2019-03-08T03:48:31.626Z,11.40
2019-03-08T03:51:17.813Z,8.43
2019-03-08T03:54:03.627Z,10.37
2019-03-08T03:56:48.758Z,7.77
2019-03-08T03:59:34.264Z,7.47
2019-03-08T04:02:19.481Z,7.00
2019-03-08T04:05:06.675Z,7.47
2019-03-08T04:07:53.011Z,8.60
2019-03-08T04:10:38.673Z,9.03
2019-03-08T04:13:24.019Z,8.40
2019-03-08T04:16:09.375Z,8.07
2019-03-08T04:18:54.496Z,6.90
2019-03-08T04:21:39.786Z,7.77
2019-03-08T04:24:25.032Z,7.43
2019-03-08T04:27:12.536Z,8.73
2019-03-08T04:29:57.639Z,7.30
2019-03-08T04:32:42.976Z,8.60
2019-03-08T04:35:27.990Z,7.57
2019-03-08T04:38:12.826Z,6.03
2019-03-08T04:40:58.144Z,7.53
2019-03-08T04:43:43.849Z,7.27
2019-03-08T04:46:29.150Z,7.30
2019-03-08T04:49:14.424Z,9.53
2019-03-08T04:52:01.207Z,10.37
2019-03-08T04:54:46.658Z,7.27
2019-03-08T04:57:31.707Z,8.50
2019-03-08T05:00:18.244Z,7.87
2019-03-08T05:03:05.421Z,8.07
2019-03-08T05:05:50.657Z,9.70
2019-03-08T05:08:35.839Z,6.97
2019-03-08T05:11:20.673Z,5.97
2019-03-08T05:14:06.059Z,10.30
2019-03-08T05:16:51.361Z,9.90
2019-03-08T05:19:36.194Z,10.27
2019-03-08T05:22:21.097Z,7.20
2019-03-08T05:25:09.638Z,5.27
2019-03-08T05:27:56.302Z,7.00
2019-03-08T05:30:41.815Z,8.50
2019-03-08T05:33:26.694Z,6.43
2019-03-08T05:36:11.922Z,7.50
2019-03-08T05:38:57.138Z,5.03
2019-03-08T05:41:42.509Z,7.13
2019-03-08T05:44:27.796Z,9.83
2019-03-08T05:47:15.082Z,4.67
2019-03-08T05:49:59.809Z,6.53
2019-03-08T05:52:45.685Z,5.77
2019-03-08T05:55:30.835Z,6.73
2019-03-08T05:58:16.709Z,10.67
2019-03-08T06:01:02.723Z,7.43
2019-03-08T06:03:47.761Z,8.03
2019-03-08T06:06:33.114Z,9.23
2019-03-08T06:09:18.498Z,6.10
2019-03-08T06:12:03.841Z,8.10
2019-03-08T06:14:49.875Z,8.80
2019-03-08T06:17:36.201Z,7.77
2019-03-08T06:20:21.355Z,9.20
2019-03-08T06:23:06.974Z,9.13
2019-03-08T06:25:52.276Z,8.90
2019-03-08T06:28:37.368Z,6.50
2019-03-08T06:31:22.600Z,9.00
2019-03-08T06:34:07.900Z,7.57
2019-03-08T06:36:52.975Z,9.50
2019-03-08T06:39:37.938Z,8.03
2019-03-08T06:42:23.098Z,9.90
2019-03-08T06:45:16.685Z,8.93
2019-03-08T06:48:02.490Z,6.40
2019-03-08T06:50:47.579Z,12.40
2019-03-08T06:53:33.001Z,8.37
2019-03-08T06:56:18.211Z,7.87
2019-03-08T06:59:10.772Z,9.33
2019-03-08T07:01:56.200Z,9.43
2019-03-08T07:04:41.732Z,6.03
2019-03-08T07:07:27.887Z,10.10
2019-03-08T07:10:13.210Z,8.27
2019-03-08T07:13:03.255Z,8.67
2019-03-08T07:15:46.159Z,7.20
2019-03-08T07:18:31.355Z,12.50
2019-03-08T07:21:19.541Z,8.53
2019-03-08T07:24:06.792Z,7.00
2019-03-08T07:26:56.866Z,8.37
2019-03-08T07:29:59.968Z,11.17
2019-03-08T07:32:50.316Z,12.23
2019-03-08T07:35:53.822Z,9.73
2019-03-08T07:38:42.270Z,11.70
2019-03-08T07:41:29.890Z,14.33
2019-03-08T07:44:33.564Z,15.23
2019-03-08T07:47:32.336Z,16.47
2019-03-08T07:50:38.418Z,12.90
2019-03-08T07:53:31.793Z,10.90
2019-03-08T07:56:35.565Z,11.40
2019-03-08T07:59:27.021Z,10.37
2019-03-08T08:02:23.438Z,10.43
2019-03-08T08:05:13.619Z,8.27
2019-03-08T08:08:07.916Z,13.60
2019-03-08T08:11:13.260Z,19.40
2019-03-08T08:14:16.774Z,22.17
2019-03-08T08:17:20.505Z,30.77
2019-03-08T08:20:16.636Z,25.20
2019-03-08T08:23:08.670Z,14.90
2019-03-08T08:25:58.403Z,15.37
2019-03-08T08:28:50.155Z,9.93
2019-03-08T08:31:39.846Z,13.03
2019-03-08T08:34:28.904Z,17.77
2019-03-08T08:37:32.769Z,11.03
2019-03-08T08:40:25.553Z,12.83
2019-03-08T08:43:30.554Z,18.67
2019-03-08T08:46:17.555Z,27.37
2019-03-08T08:49:22.375Z,47.80
2019-03-08T08:52:19.387Z,17.77
2019-03-08T08:55:25.080Z,6.47
2019-03-08T08:58:28.774Z,11.70
2019-03-08T09:01:17.111Z,7.40
2019-03-08T09:04:06.380Z,31.93
2019-03-08T09:07:02.588Z,9.53
2019-03-08T09:10:00.008Z,20.30
2019-03-08T09:12:50.154Z,11.33
2019-03-08T09:15:37.507Z,16.93
2019-03-08T09:18:36.614Z,27.70
2019-03-08T09:21:26.485Z,10.20
2019-03-08T09:24:22.332Z,12.37
2019-03-08T09:27:10.029Z,11.57
2019-03-08T09:29:57.171Z,11.43
2019-03-08T09:33:01.105Z,8.97
2019-03-08T09:35:54.735Z,9.20
2019-03-08T09:39:02.734Z,18.27
2019-03-08T09:42:08.443Z,10.60
2019-03-08T09:44:57.566Z,11.50
2019-03-08T09:47:48.369Z,12.87
2019-03-08T09:50:52.090Z,7.47
2019-03-08T09:53:55.628Z,9.73
2019-03-08T09:56:43.694Z,13.37
2019-03-08T09:59:31.030Z,9.07
2019-03-08T10:02:17.997Z,10.23
2019-03-08T10:05:12.864Z,18.43
2019-03-08T10:08:08.668Z,12.30
2019-03-08T10:10:58.117Z,18.80
2019-03-08T10:13:47.362Z,16.03
2019-03-08T10:16:34.299Z,8.13
2019-03-08T10:19:37.688Z,18.63
2019-03-08T10:22:31.327Z,9.47
2019-03-08T10:25:27.082Z,9.40
2019-03-08T10:28:29.051Z,14.80
2019-03-08T10:31:18.781Z,9.30
2019-03-08T10:34:07.177Z,5.47
2019-03-08T10:36:54.389Z,12.47
2019-03-08T10:39:59.099Z,11.73
2019-03-08T10:42:46.304Z,18.93
2019-03-08T10:45:36.031Z,7.13
2019-03-08T10:48:23.927Z,10.33
2019-03-08T10:51:16.400Z,8.87
2019-03-08T10:54:03.708Z,6.93
2019-03-08T10:56:57.017Z,5.23
2019-03-08T10:59:53.712Z,7.10
2019-03-08T11:02:48.182Z,6.90
2019-03-08T11:05:44.882Z,7.93
2019-03-08T11:08:47.518Z,6.27
2019-03-08T11:11:40.736Z,9.07
2019-03-08T11:14:37.310Z,7.57
2019-03-08T11:17:24.637Z,7.83
2019-03-08T11:20:27.097Z,8.43
2019-03-08T11:23:14.596Z,8.23
2019-03-08T11:26:02.153Z,7.00
2019-03-08T11:29:05.551Z,10.60
2019-03-08T11:32:09.332Z,6.57
2019-03-08T11:38:11.490Z,7.43
2019-03-08T11:41:01.431Z,8.97
2019-03-08T11:43:57.380Z,5.20
2019-03-08T11:46:59.370Z,8.80
2019-03-08T11:50:04.473Z,8.50
2019-03-08T11:52:51.422Z,5.90
2019-03-08T11:55:39.558Z,3.83
2019-03-08T11:58:26.622Z,5.10
2019-03-08T12:01:16.509Z,5.90
2019-03-08T12:04:07.344Z,8.93
2019-03-08T12:07:11.396Z,6.47
2019-03-08T12:09:58.634Z,6.43
2019-03-08T12:12:46.570Z,7.90
2019-03-08T12:15:36.261Z,6.70
2019-03-08T12:18:23.473Z,7.57
2019-03-08T12:21:10.389Z,6.17
2019-03-08T12:24:03.089Z,3.93
2019-03-08T12:26:56.948Z,5.50
2019-03-08T12:29:50.056Z,10.33
2019-03-08T12:32:37.730Z,7.33
2019-03-08T12:35:25.865Z,5.47
2019-03-08T12:38:27.681Z,7.67
2019-03-08T12:41:23.557Z,7.03
2019-03-08T12:44:25.542Z,6.03
2019-03-08T12:47:12.978Z,7.17
2019-03-08T12:50:01.968Z,5.33
2019-03-08T12:52:49.262Z,11.83
2019-03-08T12:55:36.484Z,11.57
2019-03-08T12:58:40.450Z,11.30
2019-03-08T13:01:36.366Z,6.07
2019-03-08T13:04:35.426Z,8.80
2019-03-08T13:07:22.628Z,9.57
2019-03-08T13:10:12.500Z,13.77
2019-03-08T13:12:58.385Z,14.93
2019-03-08T13:15:44.009Z,14.07
2019-03-08T13:18:29.193Z,12.00
2019-03-08T13:21:14.622Z,12.80
2019-03-08T13:23:59.408Z,11.33
2019-03-08T13:26:45.448Z,16.43
2019-03-08T13:29:30.997Z,18.77
2019-03-08T13:32:17.591Z,8.83
2019-03-08T13:35:06.280Z,14.00
2019-03-08T13:37:51.737Z,5.87
2019-03-08T13:40:37.131Z,6.47
2019-03-08T13:43:22.636Z,10.40
2019-03-08T13:46:08.422Z,8.07
2019-03-08T13:48:53.437Z,6.93
2019-03-08T13:51:38.910Z,7.77
2019-03-08T13:54:23.934Z,10.33
2019-03-08T13:57:09.979Z,4.80
2019-03-08T13:59:55.350Z,13.30
2019-03-08T14:02:40.728Z,9.83
2019-03-08T14:05:25.551Z,7.10
2019-03-08T14:08:13.012Z,5.63
2019-03-08T14:10:57.829Z,7.63
2019-03-08T14:13:43.087Z,8.80
2019-03-08T14:16:28.461Z,7.07
2019-03-08T14:19:13.273Z,7.57
2019-03-08T14:21:58.543Z,6.30
2019-03-08T14:24:43.875Z,5.90
2019-03-08T14:27:29.162Z,6.80
2019-03-08T14:30:23.571Z,5.83
2019-03-08T14:33:08.450Z,7.27
2019-03-08T14:35:53.761Z,7.43
2019-03-08T14:38:38.979Z,8.73
2019-03-08T14:41:36.423Z,8.50
2019-03-08T14:44:41.086Z,5.97
2019-03-08T14:47:32.977Z,9.20
2019-03-08T14:50:15.636Z,14.80
2019-03-08T14:53:01.162Z,13.17
2019-03-08T14:55:48.010Z,7.00
2019-03-08T14:58:36.825Z,9.23
2019-03-08T15:01:19.931Z,13.23
2019-03-08T15:04:05.854Z,10.50
2019-03-08T15:06:50.979Z,10.23
2019-03-08T15:09:36.339Z,17.90
2019-03-08T15:12:21.763Z,9.30
2019-03-08T15:15:11.239Z,16.70
2019-03-08T15:17:56.544Z,6.53
2019-03-08T15:20:42.513Z,13.90
2019-03-08T15:23:27.669Z,10.47
2019-03-08T15:26:14.203Z,10.67
2019-03-08T15:28:59.486Z,16.70
2019-03-08T15:31:44.778Z,8.73
2019-03-08T15:34:33.177Z,11.60
2019-03-08T15:37:18.387Z,11.60
2019-03-08T15:40:08.798Z,5.27
2019-03-08T15:42:54.096Z,15.33
2019-03-08T15:45:40.171Z,8.43
2019-03-08T15:48:26.134Z,12.07
2019-03-08T15:51:11.514Z,9.83
2019-03-08T15:53:57.737Z,14.13
2019-03-08T15:56:42.809Z,13.07
2019-03-08T15:59:28.175Z,20.37
2019-03-08T16:02:13.623Z,13.17
2019-03-08T16:04:58.793Z,19.40
2019-03-08T16:07:44.248Z,13.80
2019-03-08T16:10:32.001Z,11.70
2019-03-08T16:13:17.726Z,18.77
2019-03-08T16:16:03.497Z,15.47
2019-03-08T16:18:50.458Z,14.20
2019-03-08T16:21:35.749Z,14.00
2019-03-08T16:24:22.569Z,18.83
2019-03-08T16:27:08.190Z,15.00
2019-03-08T16:29:54.261Z,16.80
2019-03-08T16:32:41.736Z,26.87
2019-03-08T16:35:28.984Z,16.63
2019-03-08T16:38:21.389Z,12.67
2019-03-08T16:41:10.985Z,18.37
2019-03-08T16:44:14.991Z,20.13
2019-03-08T16:47:02.115Z,17.53
2019-03-08T16:49:55.904Z,26.23
2019-03-08T16:52:46.930Z,20.90
2019-03-08T16:56:13.825Z,19.03
2019-03-08T16:59:02.930Z,17.33
2019-03-08T17:02:07.587Z,14.93
2019-03-08T17:05:00.587Z,21.90
2019-03-08T17:07:53.452Z,23.67
2019-03-08T17:10:42.963Z,19.40
2019-03-08T17:13:39.383Z,14.30
2019-03-08T17:16:33.463Z,19.13
2019-03-08T17:19:26.635Z,30.53
2019-03-08T17:22:14.380Z,35.90
2019-03-08T17:25:13.404Z,46.47
2019-03-08T17:28:06.565Z,59.87
2019-03-08T17:30:53.772Z,51.67
2019-03-08T17:33:42.643Z,65.90
2019-03-08T17:36:30.014Z,54.10
2019-03-08T17:39:17.227Z,60.70
2019-03-08T17:42:04.374Z,56.40
2019-03-08T17:44:58.655Z,72.50
2019-03-08T17:47:48.373Z,66.90
2019-03-08T17:50:38.389Z,54.10
2019-03-08T17:53:25.621Z,46.73
2019-03-08T17:56:26.397Z,41.03
2019-03-08T17:59:13.579Z,33.80
2019-03-08T18:02:06.069Z,46.80
2019-03-08T18:05:10.265Z,40.37
2019-03-08T18:08:06.011Z,41.93
2019-03-08T18:14:20.055Z,36.17
2019-03-08T18:17:10.260Z,46.37
2019-03-08T18:20:14.770Z,28.53
2019-03-08T18:23:02.248Z,27.37
2019-03-08T18:25:49.985Z,26.73
2019-03-08T18:28:37.538Z,26.20
2019-03-08T18:31:30.352Z,27.07
2019-03-08T18:34:19.404Z,21.73
2019-03-08T18:37:15.681Z,22.03
2019-03-08T18:40:02.850Z,36.03
2019-03-08T18:42:49.855Z,28.27
2019-03-08T18:45:42.632Z,32.30
2019-03-08T18:48:29.674Z,29.03
2019-03-08T18:51:34.621Z,26.10
2019-03-08T18:54:27.693Z,31.57
2019-03-08T18:57:15.555Z,36.33
2019-03-08T19:00:05.338Z,28.23
2019-03-08T19:02:58.232Z,25.97
2019-03-08T19:06:03.660Z,30.43
2019-03-08T19:09:06.159Z,22.63
2019-03-08T19:12:09.813Z,27.90
2019-03-08T19:15:12.127Z,29.33
2019-03-08T19:18:16.124Z,36.50
2019-03-08T19:21:21.286Z,28.10
2019-03-08T19:24:25.248Z,26.77
2019-03-08T19:27:18.423Z,27.03
2019-03-08T19:30:19.281Z,24.47
2019-03-08T19:33:10.223Z,33.80
2019-03-08T19:36:20.953Z,30.77
2019-03-08T19:39:24.809Z,27.00
2019-03-08T19:42:13.354Z,47.60
2019-03-08T19:45:15.347Z,36.83
2019-03-08T19:48:11.659Z,29.90
2019-03-08T19:51:15.107Z,24.90
2019-03-08T19:54:18.992Z,24.20
2019-03-08T19:57:15.430Z,31.93
2019-03-08T20:00:19.377Z,53.53
2019-03-08T20:03:17.339Z,38.40
2019-03-08T20:06:10.383Z,38.20
2019-03-08T20:09:00.484Z,34.87
2019-03-08T20:11:47.580Z,31.23
2019-03-08T20:14:51.260Z,30.97
2019-03-08T20:17:39.702Z,49.37
2019-03-08T20:20:26.552Z,28.20
2019-03-08T20:23:32.668Z,25.03
2019-03-08T20:26:22.876Z,31.70
2019-03-08T20:29:12.690Z,30.70
2019-03-08T20:32:08.447Z,27.90
2019-03-08T20:35:04.497Z,36.93
2019-03-08T20:37:57.165Z,38.30
2019-03-08T20:40:56.075Z,38.10
2019-03-08T20:43:51.195Z,35.40
2019-03-08T20:46:41.053Z,37.90
2019-03-08T20:49:28.242Z,31.93
2019-03-08T20:52:13.645Z,35.83
2019-03-08T20:54:59.283Z,31.10
2019-03-08T20:57:46.482Z,33.07
2019-03-08T21:00:31.896Z,22.47
2019-03-08T21:03:17.028Z,20.10
2019-03-08T21:06:03.493Z,25.83
2019-03-08T21:08:48.574Z,19.60
2019-03-08T21:11:35.302Z,22.30
2019-03-08T21:14:20.651Z,24.90
2019-03-08T21:17:06.113Z,24.57
2019-03-08T21:19:51.825Z,24.17
2019-03-08T21:22:37.217Z,25.70
2019-03-08T21:25:22.661Z,28.37
2019-03-08T21:28:07.989Z,23.50
2019-03-08T21:30:53.063Z,19.87
2019-03-08T21:33:38.457Z,24.03
2019-03-08T21:36:24.026Z,19.87
2019-03-08T21:39:09.407Z,23.97
2019-03-08T21:41:54.891Z,35.87
2019-03-08T21:44:41.908Z,29.50
2019-03-08T21:47:27.374Z,25.13
2019-03-08T21:50:14.580Z,27.07
2019-03-08T21:53:00.166Z,28.30
2019-03-08T21:55:45.621Z,34.23
2019-03-08T21:58:30.705Z,29.70
2019-03-08T22:01:16.063Z,28.33
2019-03-08T22:04:03.072Z,28.13
2019-03-08T22:06:48.178Z,32.23
2019-03-08T22:09:35.728Z,29.03
2019-03-08T22:12:25.398Z,34.50
2019-03-08T22:15:08.852Z,35.93
2019-03-08T22:17:57.204Z,30.30
2019-03-08T22:20:42.580Z,30.27
2019-03-08T22:23:27.684Z,27.00
2019-03-08T22:26:13.325Z,30.77
2019-03-08T22:28:58.176Z,29.63
2019-03-08T22:31:43.709Z,27.77
2019-03-08T22:34:28.687Z,22.93
2019-03-08T22:37:14.066Z,27.17
2019-03-08T22:39:59.477Z,29.13
2019-03-08T22:42:45.009Z,28.60
2019-03-08T22:45:29.786Z,32.40
2019-03-08T22:48:15.344Z,32.07
2019-03-08T22:51:33.305Z,30.83
2019-03-08T22:54:18.562Z,36.63
2019-03-08T22:57:05.348Z,28.13
2019-03-08T22:59:51.002Z,211.67
2019-03-08T23:02:36.150Z,29.10
2019-03-08T23:05:22.511Z,28.17
2019-03-08T23:08:09.704Z,23.67
2019-03-08T23:10:55.092Z,23.30
2019-03-08T23:13:40.135Z,28.37
2019-03-08T23:16:25.001Z,25.87
2019-03-08T23:19:10.028Z,27.87
2019-03-08T23:21:55.355Z,30.93
2019-03-08T23:24:41.057Z,24.27
2019-03-08T23:27:30.776Z,23.10
2019-03-08T23:30:18.268Z,23.83
2019-03-08T23:33:03.234Z,21.53
2019-03-08T23:35:48.339Z,23.53
2019-03-08T23:38:37.514Z,29.27
2019-03-08T23:41:22.651Z,28.03
2019-03-08T23:44:08.258Z,26.50
2019-03-08T23:46:53.053Z,28.67
2019-03-08T23:49:39.046Z,26.20
2019-03-08T23:52:24.740Z,27.73
2019-03-08T23:55:09.851Z,27.53
2019-03-08T23:57:55.149Z,25.30
